sensor_id;sensor_type;location;lat;lon;timestamp;P1;durP1;ratioP1;P2;durP2;ratioP2
5349;SDS011;2697;42.144;24.794;2023-03-23T00:01:10;44.90;;;20.77;;
5349;SDS011;2697;42.144;24.794;2023-03-23T00:03:44;45.70;;;21.30;;
5349;SDS011;2697;42.144;24.794;2023-03-23T00:06:11;38.27;;;19.40;;
5349;SDS011;2697;42.144;24.794;2023-03-23T00:08:42;57.80;;;23.77;;
5349;SDS011;2697;42.144;24.794;2023-03-23T00:11:12;41.57;;;21.00;;
5349;SDS011;2697;42.144;24.794;2023-03-23T00:13:39;39.67;;;21.60;;
5349;SDS011;2697;42.144;24.794;2023-03-23T00:16:06;48.50;;;23.33;;
5349;SDS011;2697;42.144;24.794;2023-03-23T00:18:41;41.20;;;22.37;;
5349;SDS011;2697;42.144;24.794;2023-03-23T00:21:09;46.60;;;21.17;;
5349;SDS011;2697;42.144;24.794;2023-03-23T00:23:34;38.57;;;19.70;;
5349;SDS011;2697;42.144;24.794;2023-03-23T00:26:00;53.20;;;24.60;;
5349;SDS011;2697;42.144;24.794;2023-03-23T00:28:25;50.47;;;22.77;;
5349;SDS011;2697;42.144;24.794;2023-03-23T00:30:56;45.37;;;23.90;;
5349;SDS011;2697;42.144;24.794;2023-03-23T00:33:30;47.60;;;23.50;;
5349;SDS011;2697;42.144;24.794;2023-03-23T00:36:03;57.87;;;24.60;;
5349;SDS011;2697;42.144;24.794;2023-03-23T00:38:30;45.27;;;23.97;;
5349;SDS011;2697;42.144;24.794;2023-03-23T00:40:55;50.10;;;24.40;;
5349;SDS011;2697;42.144;24.794;2023-03-23T00:43:22;52.47;;;25.10;;
5349;SDS011;2697;42.144;24.794;2023-03-23T00:45:50;61.60;;;28.97;;
5349;SDS011;2697;42.144;24.794;2023-03-23T00:48:19;50.37;;;24.70;;
5349;SDS011;2697;42.144;24.794;2023-03-23T00:50:45;58.83;;;27.97;;
5349;SDS011;2697;42.144;24.794;2023-03-23T00:53:11;62.47;;;27.00;;
5349;SDS011;2697;42.144;24.794;2023-03-23T00:55:37;60.10;;;26.70;;
5349;SDS011;2697;42.144;24.794;2023-03-23T00:58:02;63.50;;;27.00;;
5349;SDS011;2697;42.144;24.794;2023-03-23T01:00:27;51.10;;;25.93;;
5349;SDS011;2697;42.144;24.794;2023-03-23T01:02:53;59.40;;;24.83;;
5349;SDS011;2697;42.144;24.794;2023-03-23T01:05:19;54.40;;;25.93;;
5349;SDS011;2697;42.144;24.794;2023-03-23T01:07:45;55.43;;;26.23;;
5349;SDS011;2697;42.144;24.794;2023-03-23T01:10:11;51.37;;;24.90;;
5349;SDS011;2697;42.144;24.794;2023-03-23T01:12:41;55.03;;;23.10;;
5349;SDS011;2697;42.144;24.794;2023-03-23T01:15:12;62.33;;;23.90;;
5349;SDS011;2697;42.144;24.794;2023-03-23T01:17:39;48.27;;;24.60;;
5349;SDS011;2697;42.144;24.794;2023-03-23T01:20:05;51.73;;;24.67;;
5349;SDS011;2697;42.144;24.794;2023-03-23T01:22:31;44.77;;;24.80;;
5349;SDS011;2697;42.144;24.794;2023-03-23T01:24:57;51.20;;;23.27;;
5349;SDS011;2697;42.144;24.794;2023-03-23T01:27:22;51.77;;;23.90;;
5349;SDS011;2697;42.144;24.794;2023-03-23T01:29:48;56.57;;;26.73;;
5349;SDS011;2697;42.144;24.794;2023-03-23T01:32:13;56.60;;;24.83;;
5349;SDS011;2697;42.144;24.794;2023-03-23T01:34:39;49.20;;;21.53;;
5349;SDS011;2697;42.144;24.794;2023-03-23T01:37:04;56.43;;;22.83;;
5349;SDS011;2697;42.144;24.794;2023-03-23T01:39:30;55.53;;;23.27;;
5349;SDS011;2697;42.144;24.794;2023-03-23T01:41:56;50.30;;;22.40;;
5349;SDS011;2697;42.144;24.794;2023-03-23T01:46:47;53.93;;;22.50;;
5349;SDS011;2697;42.144;24.794;2023-03-23T01:49:16;52.90;;;22.63;;
5349;SDS011;2697;42.144;24.794;2023-03-23T01:51:49;52.57;;;22.13;;
5349;SDS011;2697;42.144;24.794;2023-03-23T01:54:18;52.00;;;21.27;;
5349;SDS011;2697;42.144;24.794;2023-03-23T01:56:53;57.83;;;23.30;;
5349;SDS011;2697;42.144;24.794;2023-03-23T01:59:23;54.63;;;22.50;;
5349;SDS011;2697;42.144;24.794;2023-03-23T02:01:50;60.63;;;24.37;;
5349;SDS011;2697;42.144;24.794;2023-03-23T02:04:17;67.00;;;24.83;;
5349;SDS011;2697;42.144;24.794;2023-03-23T02:06:43;44.60;;;21.93;;
5349;SDS011;2697;42.144;24.794;2023-03-23T02:09:09;57.63;;;22.30;;
5349;SDS011;2697;42.144;24.794;2023-03-23T02:11:38;50.40;;;23.60;;
5349;SDS011;2697;42.144;24.794;2023-03-23T02:14:04;55.83;;;21.67;;
5349;SDS011;2697;42.144;24.794;2023-03-23T02:16:34;55.90;;;23.67;;
5349;SDS011;2697;42.144;24.794;2023-03-23T02:30:25;56.73;;;22.97;;
5349;SDS011;2697;42.144;24.794;2023-03-23T02:35:53;74.50;;;24.73;;
5349;SDS011;2697;42.144;24.794;2023-03-23T02:41:06;67.30;;;24.07;;
5349;SDS011;2697;42.144;24.794;2023-03-23T02:43:40;61.87;;;25.70;;
5349;SDS011;2697;42.144;24.794;2023-03-23T02:46:08;65.83;;;28.10;;
5349;SDS011;2697;42.144;24.794;2023-03-23T02:48:35;63.30;;;25.20;;
5349;SDS011;2697;42.144;24.794;2023-03-23T02:51:03;74.47;;;27.23;;
5349;SDS011;2697;42.144;24.794;2023-03-23T02:53:31;62.43;;;26.93;;
5349;SDS011;2697;42.144;24.794;2023-03-23T02:56:01;57.83;;;24.90;;
5349;SDS011;2697;42.144;24.794;2023-03-23T02:58:30;68.40;;;27.90;;
5349;SDS011;2697;42.144;24.794;2023-03-23T03:00:55;58.67;;;23.57;;
5349;SDS011;2697;42.144;24.794;2023-03-23T03:03:25;56.43;;;23.37;;
5349;SDS011;2697;42.144;24.794;2023-03-23T03:06:03;74.10;;;24.60;;
5349;SDS011;2697;42.144;24.794;2023-03-23T03:08:58;63.47;;;23.33;;
5349;SDS011;2697;42.144;24.794;2023-03-23T03:11:34;53.00;;;23.33;;
5349;SDS011;2697;42.144;24.794;2023-03-23T03:14:08;56.27;;;23.57;;
5349;SDS011;2697;42.144;24.794;2023-03-23T03:17:00;55.80;;;25.13;;
5349;SDS011;2697;42.144;24.794;2023-03-23T03:19:32;64.90;;;27.13;;
5349;SDS011;2697;42.144;24.794;2023-03-23T03:22:02;75.40;;;27.00;;
5349;SDS011;2697;42.144;24.794;2023-03-23T03:24:30;73.67;;;26.97;;
5349;SDS011;2697;42.144;24.794;2023-03-23T03:26:57;76.17;;;27.20;;
5349;SDS011;2697;42.144;24.794;2023-03-23T03:29:26;65.80;;;27.33;;
5349;SDS011;2697;42.144;24.794;2023-03-23T03:31:56;67.63;;;27.60;;
5349;SDS011;2697;42.144;24.794;2023-03-23T03:34:26;80.97;;;30.60;;
5349;SDS011;2697;42.144;24.794;2023-03-23T03:36:53;87.87;;;33.20;;
5349;SDS011;2697;42.144;24.794;2023-03-23T03:39:23;75.00;;;30.37;;
5349;SDS011;2697;42.144;24.794;2023-03-23T03:41:49;75.97;;;31.57;;
5349;SDS011;2697;42.144;24.794;2023-03-23T03:44:15;78.43;;;29.67;;
5349;SDS011;2697;42.144;24.794;2023-03-23T03:46:40;69.70;;;29.30;;
5349;SDS011;2697;42.144;24.794;2023-03-23T03:49:08;71.50;;;28.00;;
5349;SDS011;2697;42.144;24.794;2023-03-23T03:51:35;73.20;;;30.17;;
5349;SDS011;2697;42.144;24.794;2023-03-23T03:54:01;66.63;;;28.10;;
5349;SDS011;2697;42.144;24.794;2023-03-23T03:56:26;69.80;;;30.53;;
5349;SDS011;2697;42.144;24.794;2023-03-23T03:58:52;73.97;;;29.30;;
5349;SDS011;2697;42.144;24.794;2023-03-23T04:01:19;67.30;;;28.60;;
5349;SDS011;2697;42.144;24.794;2023-03-23T04:03:49;63.27;;;27.33;;
5349;SDS011;2697;42.144;24.794;2023-03-23T04:06:16;62.67;;;25.03;;
5349;SDS011;2697;42.144;24.794;2023-03-23T04:08:42;57.37;;;26.43;;
5349;SDS011;2697;42.144;24.794;2023-03-23T04:11:09;72.73;;;28.87;;
5349;SDS011;2697;42.144;24.794;2023-03-23T04:13:37;58.43;;;26.00;;
5349;SDS011;2697;42.144;24.794;2023-03-23T04:16:03;70.07;;;29.67;;
5349;SDS011;2697;42.144;24.794;2023-03-23T04:18:29;61.50;;;25.83;;
5349;SDS011;2697;42.144;24.794;2023-03-23T04:20:57;62.20;;;26.20;;
5349;SDS011;2697;42.144;24.794;2023-03-23T04:23:24;65.30;;;28.50;;
5349;SDS011;2697;42.144;24.794;2023-03-23T04:25:51;71.90;;;29.23;;
5349;SDS011;2697;42.144;24.794;2023-03-23T04:28:18;64.27;;;28.07;;
5349;SDS011;2697;42.144;24.794;2023-03-23T04:30:44;64.63;;;28.47;;
5349;SDS011;2697;42.144;24.794;2023-03-23T04:33:14;62.00;;;26.43;;
5349;SDS011;2697;42.144;24.794;2023-03-23T04:35:41;61.20;;;28.00;;
5349;SDS011;2697;42.144;24.794;2023-03-23T04:38:10;84.90;;;27.87;;
5349;SDS011;2697;42.144;24.794;2023-03-23T04:40:38;66.10;;;28.00;;
5349;SDS011;2697;42.144;24.794;2023-03-23T04:43:05;61.07;;;25.87;;
5349;SDS011;2697;42.144;24.794;2023-03-23T04:45:32;78.77;;;27.57;;
5349;SDS011;2697;42.144;24.794;2023-03-23T04:47:58;74.27;;;27.10;;
5349;SDS011;2697;42.144;24.794;2023-03-23T04:50:27;59.57;;;25.90;;
5349;SDS011;2697;42.144;24.794;2023-03-23T04:52:55;67.67;;;27.60;;
5349;SDS011;2697;42.144;24.794;2023-03-23T04:55:23;70.20;;;28.00;;
5349;SDS011;2697;42.144;24.794;2023-03-23T04:57:49;75.23;;;29.17;;
5349;SDS011;2697;42.144;24.794;2023-03-23T05:00:15;71.47;;;27.87;;
5349;SDS011;2697;42.144;24.794;2023-03-23T05:02:42;73.40;;;31.03;;
5349;SDS011;2697;42.144;24.794;2023-03-23T05:05:10;80.93;;;32.80;;
5349;SDS011;2697;42.144;24.794;2023-03-23T05:07:40;82.83;;;32.00;;
5349;SDS011;2697;42.144;24.794;2023-03-23T05:10:07;65.83;;;27.37;;
5349;SDS011;2697;42.144;24.794;2023-03-23T05:12:34;71.20;;;27.83;;
5349;SDS011;2697;42.144;24.794;2023-03-23T05:14:59;58.60;;;26.40;;
5349;SDS011;2697;42.144;24.794;2023-03-23T05:17:25;59.27;;;27.03;;
5349;SDS011;2697;42.144;24.794;2023-03-23T05:19:51;70.80;;;25.07;;
5349;SDS011;2697;42.144;24.794;2023-03-23T05:22:17;53.47;;;27.03;;
5349;SDS011;2697;42.144;24.794;2023-03-23T05:24:42;52.77;;;24.93;;
5349;SDS011;2697;42.144;24.794;2023-03-23T05:27:08;71.17;;;26.13;;
5349;SDS011;2697;42.144;24.794;2023-03-23T05:29:34;96.03;;;33.80;;
5349;SDS011;2697;42.144;24.794;2023-03-23T05:32:03;63.10;;;27.80;;
5349;SDS011;2697;42.144;24.794;2023-03-23T05:34:30;66.17;;;28.77;;
5349;SDS011;2697;42.144;24.794;2023-03-23T05:37:01;67.70;;;31.60;;
5349;SDS011;2697;42.144;24.794;2023-03-23T05:39:27;72.10;;;35.03;;
5349;SDS011;2697;42.144;24.794;2023-03-23T05:41:54;77.57;;;35.00;;
5349;SDS011;2697;42.144;24.794;2023-03-23T05:44:19;78.53;;;32.87;;
5349;SDS011;2697;42.144;24.794;2023-03-23T05:46:45;74.77;;;34.90;;
5349;SDS011;2697;42.144;24.794;2023-03-23T05:49:11;69.03;;;31.73;;
5349;SDS011;2697;42.144;24.794;2023-03-23T05:51:37;71.70;;;31.77;;
5349;SDS011;2697;42.144;24.794;2023-03-23T05:54:02;65.40;;;31.97;;
5349;SDS011;2697;42.144;24.794;2023-03-23T05:56:28;53.90;;;24.23;;
5349;SDS011;2697;42.144;24.794;2023-03-23T05:58:55;80.13;;;28.70;;
5349;SDS011;2697;42.144;24.794;2023-03-23T06:01:21;59.60;;;29.77;;
5349;SDS011;2697;42.144;24.794;2023-03-23T06:03:46;64.17;;;28.63;;
5349;SDS011;2697;42.144;24.794;2023-03-23T06:06:14;67.20;;;26.10;;
5349;SDS011;2697;42.144;24.794;2023-03-23T06:08:39;49.30;;;21.53;;
5349;SDS011;2697;42.144;24.794;2023-03-23T06:11:04;42.00;;;19.47;;
5349;SDS011;2697;42.144;24.794;2023-03-23T06:13:31;44.37;;;24.73;;
5349;SDS011;2697;42.144;24.794;2023-03-23T06:15:57;45.83;;;21.77;;
5349;SDS011;2697;42.144;24.794;2023-03-23T06:18:23;52.93;;;24.00;;
5349;SDS011;2697;42.144;24.794;2023-03-23T06:20:49;70.13;;;22.30;;
5349;SDS011;2697;42.144;24.794;2023-03-23T06:23:15;41.77;;;21.83;;
5349;SDS011;2697;42.144;24.794;2023-03-23T06:25:41;56.07;;;25.37;;
5349;SDS011;2697;42.144;24.794;2023-03-23T06:28:07;50.17;;;25.57;;
5349;SDS011;2697;42.144;24.794;2023-03-23T06:30:34;49.37;;;24.60;;
5349;SDS011;2697;42.144;24.794;2023-03-23T06:33:00;47.13;;;23.63;;
5349;SDS011;2697;42.144;24.794;2023-03-23T06:35:25;72.17;;;24.87;;
5349;SDS011;2697;42.144;24.794;2023-03-23T06:37:51;49.10;;;22.83;;
5349;SDS011;2697;42.144;24.794;2023-03-23T06:40:18;50.20;;;24.90;;
5349;SDS011;2697;42.144;24.794;2023-03-23T06:42:43;49.90;;;25.53;;
5349;SDS011;2697;42.144;24.794;2023-03-23T06:45:09;55.90;;;23.07;;
5349;SDS011;2697;42.144;24.794;2023-03-23T06:47:35;46.23;;;22.07;;
5349;SDS011;2697;42.144;24.794;2023-03-23T06:50:00;52.37;;;21.80;;
5349;SDS011;2697;42.144;24.794;2023-03-23T06:52:26;54.73;;;22.40;;
5349;SDS011;2697;42.144;24.794;2023-03-23T06:54:51;51.30;;;24.33;;
5349;SDS011;2697;42.144;24.794;2023-03-23T06:57:17;43.90;;;22.30;;
5349;SDS011;2697;42.144;24.794;2023-03-23T06:59:44;44.10;;;23.87;;
5349;SDS011;2697;42.144;24.794;2023-03-23T07:02:10;55.43;;;22.70;;
5349;SDS011;2697;42.144;24.794;2023-03-23T07:04:36;59.53;;;21.10;;
5349;SDS011;2697;42.144;24.794;2023-03-23T07:07:03;45.00;;;21.90;;
5349;SDS011;2697;42.144;24.794;2023-03-23T07:09:37;50.33;;;21.63;;
5349;SDS011;2697;42.144;24.794;2023-03-23T07:12:02;44.80;;;21.10;;
5349;SDS011;2697;42.144;24.794;2023-03-23T07:14:28;50.67;;;22.37;;
5349;SDS011;2697;42.144;24.794;2023-03-23T07:16:54;59.13;;;21.60;;
5349;SDS011;2697;42.144;24.794;2023-03-23T07:19:19;49.97;;;22.70;;
5349;SDS011;2697;42.144;24.794;2023-03-23T07:21:44;45.67;;;21.83;;
5349;SDS011;2697;42.144;24.794;2023-03-23T07:24:11;43.57;;;20.00;;
5349;SDS011;2697;42.144;24.794;2023-03-23T07:26:39;48.37;;;19.83;;
5349;SDS011;2697;42.144;24.794;2023-03-23T07:29:07;41.03;;;19.20;;
5349;SDS011;2697;42.144;24.794;2023-03-23T07:31:34;51.87;;;21.27;;
5349;SDS011;2697;42.144;24.794;2023-03-23T07:34:00;44.83;;;20.47;;
5349;SDS011;2697;42.144;24.794;2023-03-23T07:36:26;42.90;;;18.67;;
5349;SDS011;2697;42.144;24.794;2023-03-23T07:38:51;37.53;;;20.00;;
5349;SDS011;2697;42.144;24.794;2023-03-23T07:41:17;43.27;;;20.70;;
5349;SDS011;2697;42.144;24.794;2023-03-23T07:43:44;33.80;;;17.73;;
5349;SDS011;2697;42.144;24.794;2023-03-23T07:46:10;37.07;;;16.83;;
5349;SDS011;2697;42.144;24.794;2023-03-23T07:48:36;46.53;;;21.27;;
5349;SDS011;2697;42.144;24.794;2023-03-23T07:51:02;39.13;;;20.23;;
5349;SDS011;2697;42.144;24.794;2023-03-23T07:53:28;34.80;;;18.10;;
5349;SDS011;2697;42.144;24.794;2023-03-23T07:55:54;36.97;;;18.50;;
5349;SDS011;2697;42.144;24.794;2023-03-23T07:58:19;38.00;;;19.17;;
5349;SDS011;2697;42.144;24.794;2023-03-23T08:00:48;44.33;;;20.50;;
5349;SDS011;2697;42.144;24.794;2023-03-23T08:03:14;36.83;;;19.40;;
5349;SDS011;2697;42.144;24.794;2023-03-23T08:05:41;42.93;;;19.60;;
5349;SDS011;2697;42.144;24.794;2023-03-23T08:08:08;40.63;;;19.93;;
5349;SDS011;2697;42.144;24.794;2023-03-23T08:10:34;43.80;;;20.83;;
5349;SDS011;2697;42.144;24.794;2023-03-23T08:13:00;41.80;;;20.30;;
5349;SDS011;2697;42.144;24.794;2023-03-23T08:15:26;42.87;;;21.53;;
5349;SDS011;2697;42.144;24.794;2023-03-23T08:17:53;65.13;;;20.60;;
5349;SDS011;2697;42.144;24.794;2023-03-23T08:20:19;48.43;;;22.27;;
5349;SDS011;2697;42.144;24.794;2023-03-23T08:22:48;41.00;;;20.20;;
5349;SDS011;2697;42.144;24.794;2023-03-23T08:25:17;47.97;;;21.80;;
5349;SDS011;2697;42.144;24.794;2023-03-23T08:27:43;44.67;;;23.33;;
5349;SDS011;2697;42.144;24.794;2023-03-23T08:30:13;32.03;;;16.77;;
5349;SDS011;2697;42.144;24.794;2023-03-23T08:32:40;57.67;;;20.50;;
5349;SDS011;2697;42.144;24.794;2023-03-23T08:35:07;41.07;;;21.90;;
5349;SDS011;2697;42.144;24.794;2023-03-23T08:37:34;47.50;;;20.77;;
5349;SDS011;2697;42.144;24.794;2023-03-23T08:40:00;45.50;;;22.10;;
5349;SDS011;2697;42.144;24.794;2023-03-23T08:42:31;64.67;;;24.40;;
5349;SDS011;2697;42.144;24.794;2023-03-23T08:44:57;46.73;;;25.13;;
5349;SDS011;2697;42.144;24.794;2023-03-23T08:47:22;50.40;;;23.03;;
5349;SDS011;2697;42.144;24.794;2023-03-23T08:49:48;48.73;;;22.53;;
5349;SDS011;2697;42.144;24.794;2023-03-23T08:52:17;57.73;;;22.10;;
5349;SDS011;2697;42.144;24.794;2023-03-23T08:54:43;44.20;;;21.77;;
5349;SDS011;2697;42.144;24.794;2023-03-23T08:57:12;45.37;;;20.60;;
5349;SDS011;2697;42.144;24.794;2023-03-23T08:59:38;43.70;;;20.80;;
5349;SDS011;2697;42.144;24.794;2023-03-23T09:02:03;43.60;;;18.80;;
5349;SDS011;2697;42.144;24.794;2023-03-23T09:04:29;41.83;;;19.07;;
5349;SDS011;2697;42.144;24.794;2023-03-23T09:06:55;39.03;;;18.50;;
5349;SDS011;2697;42.144;24.794;2023-03-23T09:09:22;35.43;;;19.83;;
5349;SDS011;2697;42.144;24.794;2023-03-23T09:11:47;45.53;;;20.00;;
5349;SDS011;2697;42.144;24.794;2023-03-23T09:14:13;41.93;;;18.20;;
5349;SDS011;2697;42.144;24.794;2023-03-23T09:16:38;33.70;;;18.07;;
5349;SDS011;2697;42.144;24.794;2023-03-23T09:19:05;34.37;;;17.47;;
5349;SDS011;2697;42.144;24.794;2023-03-23T09:21:30;36.00;;;18.60;;
5349;SDS011;2697;42.144;24.794;2023-03-23T09:23:56;40.77;;;16.53;;
5349;SDS011;2697;42.144;24.794;2023-03-23T09:26:25;32.37;;;16.87;;
5349;SDS011;2697;42.144;24.794;2023-03-23T09:28:51;33.03;;;17.47;;
5349;SDS011;2697;42.144;24.794;2023-03-23T09:31:16;29.20;;;13.43;;
5349;SDS011;2697;42.144;24.794;2023-03-23T09:33:45;17.87;;;9.60;;
5349;SDS011;2697;42.144;24.794;2023-03-23T09:36:11;35.30;;;15.03;;
5349;SDS011;2697;42.144;24.794;2023-03-23T09:38:39;30.30;;;17.20;;
5349;SDS011;2697;42.144;24.794;2023-03-23T09:43:47;31.57;;;14.97;;
5349;SDS011;2697;42.144;24.794;2023-03-23T09:48:59;26.83;;;15.00;;
5349;SDS011;2697;42.144;24.794;2023-03-23T09:52:03;30.13;;;16.20;;
5349;SDS011;2697;42.144;24.794;2023-03-23T09:54:28;31.53;;;13.53;;
5349;SDS011;2697;42.144;24.794;2023-03-23T09:56:58;22.10;;;13.33;;
5349;SDS011;2697;42.144;24.794;2023-03-23T09:59:30;27.20;;;12.77;;
5349;SDS011;2697;42.144;24.794;2023-03-23T10:02:22;22.80;;;10.27;;
5349;SDS011;2697;42.144;24.794;2023-03-23T10:04:54;18.60;;;10.47;;
5349;SDS011;2697;42.144;24.794;2023-03-23T10:07:23;15.87;;;9.90;;
5349;SDS011;2697;42.144;24.794;2023-03-23T10:09:55;19.47;;;11.17;;
5349;SDS011;2697;42.144;24.794;2023-03-23T10:15:17;15.20;;;8.53;;
5349;SDS011;2697;42.144;24.794;2023-03-23T10:17:55;13.00;;;7.60;;
5349;SDS011;2697;42.144;24.794;2023-03-23T10:20:33;16.67;;;7.60;;
5349;SDS011;2697;42.144;24.794;2023-03-23T10:25:49;12.40;;;7.93;;
5349;SDS011;2697;42.144;24.794;2023-03-23T10:28:32;11.80;;;7.30;;
5349;SDS011;2697;42.144;24.794;2023-03-23T10:31:01;15.30;;;7.97;;
5349;SDS011;2697;42.144;24.794;2023-03-23T10:35:59;10.40;;;6.60;;
5349;SDS011;2697;42.144;24.794;2023-03-23T10:38:43;12.17;;;6.27;;
5349;SDS011;2697;42.144;24.794;2023-03-23T10:41:16;18.17;;;6.40;;
5349;SDS011;2697;42.144;24.794;2023-03-23T10:43:43;11.23;;;4.93;;
5349;SDS011;2697;42.144;24.794;2023-03-23T10:49:04;17.03;;;4.30;;
5349;SDS011;2697;42.144;24.794;2023-03-23T10:51:40;12.30;;;4.10;;
5349;SDS011;2697;42.144;24.794;2023-03-23T10:54:08;6.17;;;3.50;;
5349;SDS011;2697;42.144;24.794;2023-03-23T10:56:36;6.00;;;4.13;;
5349;SDS011;2697;42.144;24.794;2023-03-23T11:02:10;7.40;;;4.20;;
5349;SDS011;2697;42.144;24.794;2023-03-23T11:04:44;7.83;;;4.00;;
5349;SDS011;2697;42.144;24.794;2023-03-23T11:07:15;6.03;;;4.30;;
5349;SDS011;2697;42.144;24.794;2023-03-23T11:09:52;7.70;;;4.70;;
5349;SDS011;2697;42.144;24.794;2023-03-23T11:12:20;6.57;;;4.87;;
5349;SDS011;2697;42.144;24.794;2023-03-23T11:14:47;8.50;;;5.57;;
5349;SDS011;2697;42.144;24.794;2023-03-23T11:17:21;7.37;;;4.43;;
5349;SDS011;2697;42.144;24.794;2023-03-23T11:19:51;18.53;;;4.90;;
5349;SDS011;2697;42.144;24.794;2023-03-23T11:24:59;8.97;;;4.73;;
5349;SDS011;2697;42.144;24.794;2023-03-23T11:27:27;5.63;;;4.13;;
5349;SDS011;2697;42.144;24.794;2023-03-23T11:29:54;7.27;;;5.03;;
5349;SDS011;2697;42.144;24.794;2023-03-23T11:32:25;16.93;;;4.93;;
5349;SDS011;2697;42.144;24.794;2023-03-23T11:34:58;15.20;;;6.80;;
5349;SDS011;2697;42.144;24.794;2023-03-23T11:37:28;14.70;;;6.40;;
5349;SDS011;2697;42.144;24.794;2023-03-23T11:39:58;12.50;;;7.17;;
5349;SDS011;2697;42.144;24.794;2023-03-23T11:42:38;6.03;;;4.20;;
5349;SDS011;2697;42.144;24.794;2023-03-23T11:50:55;17.00;;;8.93;;
5349;SDS011;2697;42.144;24.794;2023-03-23T11:56:33;20.07;;;10.20;;
5349;SDS011;2697;42.144;24.794;2023-03-23T11:59:01;9.63;;;6.20;;
5349;SDS011;2697;42.144;24.794;2023-03-23T12:01:36;13.63;;;7.13;;
5349;SDS011;2697;42.144;24.794;2023-03-23T12:07:20;11.77;;;6.50;;
5349;SDS011;2697;42.144;24.794;2023-03-23T12:10:12;14.60;;;7.50;;
5349;SDS011;2697;42.144;24.794;2023-03-23T12:19:30;12.50;;;8.30;;
5349;SDS011;2697;42.144;24.794;2023-03-23T12:27:58;6.63;;;3.70;;
5349;SDS011;2697;42.144;24.794;2023-03-23T12:33:32;14.00;;;5.80;;
5349;SDS011;2697;42.144;24.794;2023-03-23T12:36:05;8.63;;;5.47;;
5349;SDS011;2697;42.144;24.794;2023-03-23T12:39:03;6.40;;;4.37;;
5349;SDS011;2697;42.144;24.794;2023-03-23T12:44:35;7.47;;;4.90;;
5349;SDS011;2697;42.144;24.794;2023-03-23T12:49:46;11.30;;;4.47;;
5349;SDS011;2697;42.144;24.794;2023-03-23T12:52:22;7.00;;;4.17;;
5349;SDS011;2697;42.144;24.794;2023-03-23T12:55:09;7.73;;;3.47;;
5349;SDS011;2697;42.144;24.794;2023-03-23T13:00:52;8.60;;;4.27;;
5349;SDS011;2697;42.144;24.794;2023-03-23T13:03:26;7.10;;;4.33;;
5349;SDS011;2697;42.144;24.794;2023-03-23T13:06:07;6.67;;;4.00;;
5349;SDS011;2697;42.144;24.794;2023-03-23T13:11:34;4.53;;;3.27;;
5349;SDS011;2697;42.144;24.794;2023-03-23T13:19:25;5.50;;;3.20;;
5349;SDS011;2697;42.144;24.794;2023-03-23T13:22:11;5.77;;;3.60;;
5349;SDS011;2697;42.144;24.794;2023-03-23T13:24:51;2.90;;;2.50;;
5349;SDS011;2697;42.144;24.794;2023-03-23T13:27:22;7.73;;;3.13;;
5349;SDS011;2697;42.144;24.794;2023-03-23T13:29:52;5.13;;;3.20;;
5349;SDS011;2697;42.144;24.794;2023-03-23T13:32:18;5.60;;;3.57;;
5349;SDS011;2697;42.144;24.794;2023-03-23T13:34:45;4.40;;;3.10;;
5349;SDS011;2697;42.144;24.794;2023-03-23T13:39:50;4.13;;;3.10;;
5349;SDS011;2697;42.144;24.794;2023-03-23T13:42:21;9.53;;;3.20;;
5349;SDS011;2697;42.144;24.794;2023-03-23T13:50:10;3.83;;;2.30;;
5349;SDS011;2697;42.144;24.794;2023-03-23T13:52:52;7.50;;;3.73;;
5349;SDS011;2697;42.144;24.794;2023-03-23T13:58:48;4.77;;;2.83;;
5349;SDS011;2697;42.144;24.794;2023-03-23T14:01:17;3.80;;;2.67;;
5349;SDS011;2697;42.144;24.794;2023-03-23T14:03:48;5.87;;;3.47;;
5349;SDS011;2697;42.144;24.794;2023-03-23T14:06:22;10.23;;;3.33;;
5349;SDS011;2697;42.144;24.794;2023-03-23T14:08:50;4.93;;;3.60;;
5349;SDS011;2697;42.144;24.794;2023-03-23T14:16:43;4.20;;;2.77;;
5349;SDS011;2697;42.144;24.794;2023-03-23T14:19:14;6.03;;;4.00;;
5349;SDS011;2697;42.144;24.794;2023-03-23T14:21:48;8.40;;;4.27;;
5349;SDS011;2697;42.144;24.794;2023-03-23T14:24:16;4.57;;;3.07;;
5349;SDS011;2697;42.144;24.794;2023-03-23T14:29:30;7.90;;;3.70;;
5349;SDS011;2697;42.144;24.794;2023-03-23T14:31:56;12.83;;;3.60;;
5349;SDS011;2697;42.144;24.794;2023-03-23T14:34:27;7.53;;;4.33;;
5349;SDS011;2697;42.144;24.794;2023-03-23T14:36:56;3.70;;;2.57;;
5349;SDS011;2697;42.144;24.794;2023-03-23T14:39:29;5.77;;;3.17;;
5349;SDS011;2697;42.144;24.794;2023-03-23T14:41:56;3.77;;;3.03;;
5349;SDS011;2697;42.144;24.794;2023-03-23T14:44:40;7.80;;;3.60;;
5349;SDS011;2697;42.144;24.794;2023-03-23T14:47:17;9.23;;;2.90;;
5349;SDS011;2697;42.144;24.794;2023-03-23T14:49:46;7.03;;;3.37;;
5349;SDS011;2697;42.144;24.794;2023-03-23T14:54:41;5.23;;;3.53;;
5349;SDS011;2697;42.144;24.794;2023-03-23T14:57:12;6.67;;;3.23;;
5349;SDS011;2697;42.144;24.794;2023-03-23T14:59:42;6.23;;;3.70;;
5349;SDS011;2697;42.144;24.794;2023-03-23T15:02:14;14.93;;;3.90;;
5349;SDS011;2697;42.144;24.794;2023-03-23T15:05:06;6.80;;;4.60;;
5349;SDS011;2697;42.144;24.794;2023-03-23T15:07:43;4.57;;;3.67;;
5349;SDS011;2697;42.144;24.794;2023-03-23T15:10:15;6.23;;;4.20;;
5349;SDS011;2697;42.144;24.794;2023-03-23T15:12:44;17.00;;;4.63;;
5349;SDS011;2697;42.144;24.794;2023-03-23T15:15:21;12.50;;;4.00;;
5349;SDS011;2697;42.144;24.794;2023-03-23T15:17:50;14.70;;;4.03;;
5349;SDS011;2697;42.144;24.794;2023-03-23T15:20:21;4.40;;;3.30;;
5349;SDS011;2697;42.144;24.794;2023-03-23T15:22:53;6.70;;;4.23;;
5349;SDS011;2697;42.144;24.794;2023-03-23T15:25:23;10.20;;;3.40;;
5349;SDS011;2697;42.144;24.794;2023-03-23T15:30:33;10.63;;;4.50;;
5349;SDS011;2697;42.144;24.794;2023-03-23T15:33:11;7.20;;;4.30;;
5349;SDS011;2697;42.144;24.794;2023-03-23T15:35:38;8.57;;;3.73;;
5349;SDS011;2697;42.144;24.794;2023-03-23T15:38:15;6.23;;;3.60;;
5349;SDS011;2697;42.144;24.794;2023-03-23T15:40:51;7.17;;;3.63;;
5349;SDS011;2697;42.144;24.794;2023-03-23T15:43:19;7.43;;;4.70;;
5349;SDS011;2697;42.144;24.794;2023-03-23T15:45:53;7.93;;;4.80;;
5349;SDS011;2697;42.144;24.794;2023-03-23T15:48:25;6.50;;;4.70;;
5349;SDS011;2697;42.144;24.794;2023-03-23T15:50:51;19.10;;;5.50;;
5349;SDS011;2697;42.144;24.794;2023-03-23T15:53:26;14.83;;;4.83;;
5349;SDS011;2697;42.144;24.794;2023-03-23T15:55:52;11.93;;;4.03;;
5349;SDS011;2697;42.144;24.794;2023-03-23T15:58:17;10.13;;;3.93;;
5349;SDS011;2697;42.144;24.794;2023-03-23T16:00:43;8.00;;;3.97;;
5349;SDS011;2697;42.144;24.794;2023-03-23T16:03:22;6.60;;;3.93;;
5349;SDS011;2697;42.144;24.794;2023-03-23T16:05:51;8.07;;;4.10;;
5349;SDS011;2697;42.144;24.794;2023-03-23T16:08:17;10.80;;;5.93;;
5349;SDS011;2697;42.144;24.794;2023-03-23T16:10:43;7.23;;;3.73;;
5349;SDS011;2697;42.144;24.794;2023-03-23T16:13:08;10.07;;;4.80;;
5349;SDS011;2697;42.144;24.794;2023-03-23T16:15:34;10.33;;;5.47;;
5349;SDS011;2697;42.144;24.794;2023-03-23T16:17:59;9.43;;;5.63;;
5349;SDS011;2697;42.144;24.794;2023-03-23T16:20:27;13.47;;;4.67;;
5349;SDS011;2697;42.144;24.794;2023-03-23T16:22:53;9.13;;;4.60;;
5349;SDS011;2697;42.144;24.794;2023-03-23T16:25:18;18.63;;;7.67;;
5349;SDS011;2697;42.144;24.794;2023-03-23T16:27:44;10.97;;;5.67;;
5349;SDS011;2697;42.144;24.794;2023-03-23T16:30:33;14.03;;;5.50;;
5349;SDS011;2697;42.144;24.794;2023-03-23T16:33:00;10.93;;;5.93;;
5349;SDS011;2697;42.144;24.794;2023-03-23T16:35:25;11.30;;;6.50;;
5349;SDS011;2697;42.144;24.794;2023-03-23T16:37:52;14.10;;;6.23;;
5349;SDS011;2697;42.144;24.794;2023-03-23T16:40:20;9.13;;;5.90;;
5349;SDS011;2697;42.144;24.794;2023-03-23T16:42:46;15.63;;;6.53;;